createdAt,value
2018-06-24T00:02:03.488Z,4.70
2018-06-24T00:04:31.089Z,4.13
2018-06-24T00:06:58.609Z,4.80
2018-06-24T00:09:27.447Z,4.17
2018-06-24T00:11:56.088Z,4.67
2018-06-24T00:14:24.323Z,4.40
2018-06-24T00:16:51.998Z,5.40
2018-06-24T00:19:20.158Z,4.93
2018-06-24T00:21:48.334Z,5.37
2018-06-24T00:24:16.512Z,4.90
2018-06-24T00:26:44.688Z,4.90
2018-06-24T00:29:13.327Z,4.47
2018-06-24T00:31:42.021Z,4.47
2018-06-24T00:34:09.743Z,4.37
2018-06-24T00:36:37.237Z,5.13
2018-06-24T00:39:08.595Z,4.90
2018-06-24T00:41:36.892Z,5.37
2018-06-24T00:44:04.952Z,4.90
2018-06-24T00:46:33.132Z,5.83
2018-06-24T00:49:01.891Z,4.70
2018-06-24T00:51:29.382Z,4.53
2018-06-24T00:53:56.881Z,4.72
2018-06-24T00:56:25.234Z,4.93
2018-06-24T00:58:53.388Z,5.00
2018-06-24T01:01:21.593Z,5.50
2018-06-24T01:03:50.351Z,5.00
2018-06-24T01:06:18.545Z,4.53
2018-06-24T01:08:46.109Z,4.40
2018-06-24T01:11:14.223Z,5.03
2018-06-24T01:13:42.315Z,5.50
2018-06-24T01:16:10.768Z,4.95
2018-06-24T01:18:38.853Z,5.73
2018-06-24T01:21:07.211Z,5.25
2018-06-24T01:23:35.435Z,4.63
2018-06-24T01:26:03.823Z,4.37
2018-06-24T01:28:31.323Z,5.50
2018-06-24T01:30:59.833Z,5.50
2018-06-24T01:33:28.066Z,5.53
2018-06-24T01:35:55.718Z,5.53
2018-06-24T01:38:23.225Z,5.03
2018-06-24T01:40:50.729Z,4.50
2018-06-24T01:43:19.221Z,5.12
2018-06-24T01:45:47.838Z,6.80
2018-06-24T01:48:16.319Z,6.17
2018-06-24T01:50:44.625Z,6.13
2018-06-24T01:53:13.317Z,5.73
2018-06-24T01:55:41.582Z,11.30
2018-06-24T01:58:10.100Z,11.38
2018-06-24T02:00:38.438Z,8.40
2018-06-24T02:03:06.613Z,5.65
2018-06-24T02:05:34.787Z,5.42
2018-06-24T02:08:02.965Z,5.00
2018-06-24T02:10:31.141Z,5.30
2018-06-24T02:12:59.318Z,5.85
2018-06-24T02:15:27.495Z,5.25
2018-06-24T02:17:55.672Z,5.10
2018-06-24T02:20:23.344Z,5.60
2018-06-24T02:22:51.749Z,6.55
2018-06-24T02:25:20.205Z,6.20
2018-06-24T02:27:48.689Z,5.62
2018-06-24T02:30:16.870Z,6.25
2018-06-24T02:32:44.922Z,6.45
2018-06-24T02:35:13.422Z,6.30
2018-06-24T02:37:40.932Z,5.55
2018-06-24T02:40:09.120Z,6.00
2018-06-24T02:42:37.087Z,6.00
2018-06-24T02:45:05.281Z,5.50
2018-06-24T02:47:33.869Z,5.90
2018-06-24T02:50:01.965Z,5.15
2018-06-24T02:52:29.929Z,5.87
2018-06-24T02:54:58.493Z,6.12
2018-06-24T02:57:27.068Z,6.15
2018-06-24T02:59:55.170Z,6.08
2018-06-24T03:02:24.014Z,5.33
2018-06-24T03:04:51.807Z,5.80
2018-06-24T03:07:19.753Z,6.10
2018-06-24T03:09:47.750Z,6.10
2018-06-24T03:12:17.046Z,5.22
2018-06-24T03:14:45.763Z,5.78
2018-06-24T03:17:14.532Z,5.92
2018-06-24T03:19:42.747Z,5.45
2018-06-24T03:22:10.636Z,5.80
2018-06-24T03:24:39.476Z,5.78
2018-06-24T03:27:07.706Z,5.80
2018-06-24T03:29:35.827Z,6.08
2018-06-24T03:32:04.005Z,6.37
2018-06-24T03:34:31.677Z,5.75
2018-06-24T03:37:00.223Z,6.70
2018-06-24T03:39:27.754Z,6.10
2018-06-24T03:41:55.625Z,5.90
2018-06-24T03:44:24.044Z,5.70
2018-06-24T03:46:53.064Z,6.35
2018-06-24T03:49:22.055Z,6.20
2018-06-24T03:51:49.563Z,6.40
2018-06-24T03:54:17.594Z,5.25
2018-06-24T03:56:46.124Z,5.97
2018-06-24T03:59:14.876Z,6.28
2018-06-24T04:01:43.315Z,5.78
2018-06-24T04:04:10.809Z,6.10
2018-06-24T04:06:39.527Z,6.03
2018-06-24T04:09:08.347Z,6.10
2018-06-24T04:11:36.610Z,7.87
2018-06-24T04:14:05.429Z,6.10
2018-06-24T04:16:34.121Z,6.37
2018-06-24T04:19:02.215Z,5.97
2018-06-24T04:21:30.382Z,6.90
2018-06-24T04:23:58.738Z,6.33
2018-06-24T04:26:26.313Z,7.35
2018-06-24T04:28:54.983Z,6.37
2018-06-24T04:31:23.268Z,6.08
2018-06-24T04:33:51.455Z,6.42
2018-06-24T04:36:20.185Z,6.33
2018-06-24T04:38:48.954Z,6.25
2018-06-24T04:41:17.574Z,6.75
2018-06-24T04:43:45.684Z,6.87
2018-06-24T04:46:13.210Z,6.60
2018-06-24T04:48:41.697Z,6.40
2018-06-24T04:51:10.161Z,6.75
2018-06-24T04:53:38.209Z,6.87
2018-06-24T04:56:06.844Z,6.17
2018-06-24T04:58:34.332Z,6.42
2018-06-24T05:01:01.897Z,6.33
2018-06-24T05:03:30.141Z,6.20
2018-06-24T05:05:58.338Z,6.50
2018-06-24T05:08:26.409Z,6.97
2018-06-24T05:10:55.058Z,6.58
2018-06-24T05:13:22.579Z,6.35
2018-06-24T05:15:50.447Z,6.30
2018-06-24T05:18:18.500Z,9.33
2018-06-24T05:20:47.747Z,7.35
2018-06-24T05:23:15.545Z,5.80
2018-06-24T05:25:43.663Z,6.13
2018-06-24T05:28:11.330Z,6.60
2018-06-24T05:30:39.333Z,7.08
2018-06-24T05:33:06.791Z,6.50
2018-06-24T05:35:35.070Z,6.60
2018-06-24T05:38:03.316Z,6.90
2018-06-24T05:40:32.213Z,6.90
2018-06-24T05:43:00.316Z,6.85
2018-06-24T05:45:27.804Z,7.10
2018-06-24T05:47:56.742Z,6.23
2018-06-24T05:50:24.785Z,6.97
2018-06-24T05:52:52.399Z,7.30
2018-06-24T05:55:20.018Z,7.67
2018-06-24T05:57:47.816Z,7.10
2018-06-24T06:00:15.464Z,7.00
